sensor_id;sensor_type;location;lat;lon;timestamp;P1;durP1;ratioP1;P2;durP2;ratioP2
14400;SDS011;7285;50.894;5.462;2024-03-06T00:01:34;1.37;;;1.37;;
14400;SDS011;7285;50.894;5.462;2024-03-06T00:04:01;1.33;;;1.33;;
14400;SDS011;7285;50.894;5.462;2024-03-06T00:06:30;1.30;;;1.30;;
14400;SDS011;7285;50.894;5.462;2024-03-06T00:08:57;2.33;;;2.23;;
14400;SDS011;7285;50.894;5.462;2024-03-06T00:11:27;1.77;;;1.77;;
14400;SDS011;7285;50.894;5.462;2024-03-06T00:13:54;1.53;;;1.53;;
14400;SDS011;7285;50.894;5.462;2024-03-06T00:16:21;1.33;;;1.33;;
14400;SDS011;7285;50.894;5.462;2024-03-06T00:18:48;3.20;;;1.70;;
14400;SDS011;7285;50.894;5.462;2024-03-06T00:21:15;1.43;;;1.43;;
14400;SDS011;7285;50.894;5.462;2024-03-06T00:23:44;1.57;;;1.57;;
14400;SDS011;7285;50.894;5.462;2024-03-06T00:26:11;1.50;;;1.40;;
14400;SDS011;7285;50.894;5.462;2024-03-06T00:28:38;1.20;;;1.20;;
14400;SDS011;7285;50.894;5.462;2024-03-06T00:31:05;1.80;;;1.80;;
14400;SDS011;7285;50.894;5.462;2024-03-06T00:33:32;1.87;;;1.87;;
14400;SDS011;7285;50.894;5.462;2024-03-06T00:35:59;1.47;;;1.47;;
14400;SDS011;7285;50.894;5.462;2024-03-06T00:38:26;1.30;;;1.30;;
14400;SDS011;7285;50.894;5.462;2024-03-06T00:40:54;0.83;;;0.83;;
14400;SDS011;7285;50.894;5.462;2024-03-06T00:43:22;1.30;;;1.30;;
14400;SDS011;7285;50.894;5.462;2024-03-06T00:45:49;1.67;;;1.60;;
14400;SDS011;7285;50.894;5.462;2024-03-06T00:48:16;1.20;;;1.20;;
14400;SDS011;7285;50.894;5.462;2024-03-06T00:50:45;2.63;;;2.53;;
14400;SDS011;7285;50.894;5.462;2024-03-06T00:53:12;1.57;;;1.57;;
14400;SDS011;7285;50.894;5.462;2024-03-06T00:55:38;1.43;;;1.43;;
14400;SDS011;7285;50.894;5.462;2024-03-06T00:58:07;1.67;;;1.67;;
14400;SDS011;7285;50.894;5.462;2024-03-06T01:00:34;2.07;;;1.97;;
14400;SDS011;7285;50.894;5.462;2024-03-06T01:03:01;1.23;;;1.23;;
14400;SDS011;7285;50.894;5.462;2024-03-06T01:05:27;1.07;;;1.07;;
14400;SDS011;7285;50.894;5.462;2024-03-06T01:07:54;1.47;;;1.47;;
14400;SDS011;7285;50.894;5.462;2024-03-06T01:10:21;1.20;;;1.20;;
14400;SDS011;7285;50.894;5.462;2024-03-06T01:12:49;1.30;;;1.30;;
14400;SDS011;7285;50.894;5.462;2024-03-06T01:15:17;1.30;;;1.30;;
14400;SDS011;7285;50.894;5.462;2024-03-06T01:17:44;2.13;;;2.13;;
14400;SDS011;7285;50.894;5.462;2024-03-06T01:20:11;1.40;;;1.40;;
14400;SDS011;7285;50.894;5.462;2024-03-06T01:22:38;1.23;;;1.23;;
14400;SDS011;7285;50.894;5.462;2024-03-06T01:25:06;1.30;;;1.30;;
14400;SDS011;7285;50.894;5.462;2024-03-06T01:27:33;1.37;;;1.37;;
14400;SDS011;7285;50.894;5.462;2024-03-06T01:30:00;1.60;;;1.60;;
14400;SDS011;7285;50.894;5.462;2024-03-06T01:32:29;1.10;;;1.10;;
14400;SDS011;7285;50.894;5.462;2024-03-06T01:34:56;2.07;;;1.97;;
14400;SDS011;7285;50.894;5.462;2024-03-06T01:37:23;1.30;;;1.30;;
14400;SDS011;7285;50.894;5.462;2024-03-06T01:39:50;1.40;;;1.40;;
14400;SDS011;7285;50.894;5.462;2024-03-06T01:42:17;1.00;;;1.00;;
14400;SDS011;7285;50.894;5.462;2024-03-06T01:44:44;1.60;;;1.50;;
14400;SDS011;7285;50.894;5.462;2024-03-06T01:47:11;1.60;;;1.60;;
14400;SDS011;7285;50.894;5.462;2024-03-06T01:49:39;1.80;;;1.80;;
14400;SDS011;7285;50.894;5.462;2024-03-06T01:52:07;1.37;;;1.37;;
14400;SDS011;7285;50.894;5.462;2024-03-06T01:54:35;1.80;;;1.70;;
14400;SDS011;7285;50.894;5.462;2024-03-06T01:57:02;1.20;;;1.20;;
14400;SDS011;7285;50.894;5.462;2024-03-06T01:59:30;1.50;;;1.50;;
14400;SDS011;7285;50.894;5.462;2024-03-06T02:01:57;1.30;;;1.30;;
14400;SDS011;7285;50.894;5.462;2024-03-06T02:04:26;2.30;;;2.20;;
14400;SDS011;7285;50.894;5.462;2024-03-06T02:06:55;1.10;;;1.10;;
14400;SDS011;7285;50.894;5.462;2024-03-06T02:09:22;1.30;;;1.30;;
14400;SDS011;7285;50.894;5.462;2024-03-06T02:11:49;1.53;;;1.53;;
14400;SDS011;7285;50.894;5.462;2024-03-06T02:14:16;1.60;;;1.60;;
14400;SDS011;7285;50.894;5.462;2024-03-06T02:16:43;1.60;;;1.60;;
14400;SDS011;7285;50.894;5.462;2024-03-06T02:19:10;1.27;;;1.27;;
14400;SDS011;7285;50.894;5.462;2024-03-06T02:21:38;1.67;;;1.67;;
14400;SDS011;7285;50.894;5.462;2024-03-06T02:24:05;1.50;;;1.50;;
14400;SDS011;7285;50.894;5.462;2024-03-06T02:26:33;1.80;;;1.80;;
14400;SDS011;7285;50.894;5.462;2024-03-06T02:29:00;1.70;;;1.70;;
14400;SDS011;7285;50.894;5.462;2024-03-06T02:31:27;2.30;;;2.27;;
14400;SDS011;7285;50.894;5.462;2024-03-06T02:33:54;1.70;;;1.70;;
14400;SDS011;7285;50.894;5.462;2024-03-06T02:36:21;1.53;;;1.53;;
14400;SDS011;7285;50.894;5.462;2024-03-06T02:38:49;1.30;;;1.30;;
14400;SDS011;7285;50.894;5.462;2024-03-06T02:41:16;1.27;;;1.27;;
14400;SDS011;7285;50.894;5.462;2024-03-06T02:43:43;1.57;;;1.57;;
14400;SDS011;7285;50.894;5.462;2024-03-06T02:46:10;1.50;;;1.50;;
14400;SDS011;7285;50.894;5.462;2024-03-06T02:48:37;1.20;;;1.20;;
14400;SDS011;7285;50.894;5.462;2024-03-06T02:51:04;1.73;;;1.73;;
14400;SDS011;7285;50.894;5.462;2024-03-06T02:53:31;1.50;;;1.50;;
14400;SDS011;7285;50.894;5.462;2024-03-06T02:55:59;2.17;;;2.07;;
14400;SDS011;7285;50.894;5.462;2024-03-06T02:58:26;1.97;;;1.93;;
14400;SDS011;7285;50.894;5.462;2024-03-06T03:00:56;1.50;;;1.50;;
14400;SDS011;7285;50.894;5.462;2024-03-06T03:03:23;1.43;;;1.43;;
14400;SDS011;7285;50.894;5.462;2024-03-06T03:05:50;1.60;;;1.60;;
14400;SDS011;7285;50.894;5.462;2024-03-06T03:08:17;1.23;;;1.23;;
14400;SDS011;7285;50.894;5.462;2024-03-06T03:10:44;1.60;;;1.60;;
14400;SDS011;7285;50.894;5.462;2024-03-06T03:13:12;1.70;;;1.70;;
14400;SDS011;7285;50.894;5.462;2024-03-06T03:15:39;1.80;;;1.80;;
14400;SDS011;7285;50.894;5.462;2024-03-06T03:18:06;1.60;;;1.60;;
14400;SDS011;7285;50.894;5.462;2024-03-06T03:20:33;2.00;;;2.00;;
14400;SDS011;7285;50.894;5.462;2024-03-06T03:23:01;1.83;;;1.83;;
14400;SDS011;7285;50.894;5.462;2024-03-06T03:25:28;1.90;;;1.90;;
14400;SDS011;7285;50.894;5.462;2024-03-06T03:27:55;2.13;;;2.00;;
14400;SDS011;7285;50.894;5.462;2024-03-06T03:30:23;1.70;;;1.70;;
14400;SDS011;7285;50.894;5.462;2024-03-06T03:32:50;2.10;;;2.10;;
14400;SDS011;7285;50.894;5.462;2024-03-06T03:35:17;1.47;;;1.47;;
14400;SDS011;7285;50.894;5.462;2024-03-06T03:37:46;1.70;;;1.60;;
14400;SDS011;7285;50.894;5.462;2024-03-06T03:40:13;2.07;;;1.97;;
14400;SDS011;7285;50.894;5.462;2024-03-06T03:42:40;1.90;;;1.90;;
14400;SDS011;7285;50.894;5.462;2024-03-06T03:45:07;1.53;;;1.53;;
14400;SDS011;7285;50.894;5.462;2024-03-06T03:47:36;1.50;;;1.50;;
14400;SDS011;7285;50.894;5.462;2024-03-06T03:50:03;1.70;;;1.70;;
14400;SDS011;7285;50.894;5.462;2024-03-06T03:52:31;1.47;;;1.47;;
14400;SDS011;7285;50.894;5.462;2024-03-06T03:54:58;1.70;;;1.70;;
14400;SDS011;7285;50.894;5.462;2024-03-06T03:57:24;1.30;;;1.30;;
14400;SDS011;7285;50.894;5.462;2024-03-06T03:59:52;1.87;;;1.87;;
14400;SDS011;7285;50.894;5.462;2024-03-06T04:02:19;2.13;;;2.03;;
14400;SDS011;7285;50.894;5.462;2024-03-06T04:04:47;1.63;;;1.63;;
14400;SDS011;7285;50.894;5.462;2024-03-06T04:07:14;1.40;;;1.40;;
14400;SDS011;7285;50.894;5.462;2024-03-06T04:09:43;1.23;;;1.23;;
14400;SDS011;7285;50.894;5.462;2024-03-06T04:12:11;1.60;;;1.60;;
14400;SDS011;7285;50.894;5.462;2024-03-06T04:14:38;1.67;;;1.67;;
14400;SDS011;7285;50.894;5.462;2024-03-06T04:17:04;2.10;;;2.10;;
14400;SDS011;7285;50.894;5.462;2024-03-06T04:19:31;1.60;;;1.60;;
14400;SDS011;7285;50.894;5.462;2024-03-06T04:22:00;1.93;;;1.93;;
14400;SDS011;7285;50.894;5.462;2024-03-06T04:24:27;1.50;;;1.50;;
14400;SDS011;7285;50.894;5.462;2024-03-06T04:26:54;1.43;;;1.43;;
14400;SDS011;7285;50.894;5.462;2024-03-06T04:29:21;1.37;;;1.37;;
14400;SDS011;7285;50.894;5.462;2024-03-06T04:31:48;1.20;;;1.20;;
14400;SDS011;7285;50.894;5.462;2024-03-06T04:34:15;1.70;;;1.70;;
14400;SDS011;7285;50.894;5.462;2024-03-06T04:36:41;1.40;;;1.40;;
14400;SDS011;7285;50.894;5.462;2024-03-06T04:39:10;1.53;;;1.53;;
14400;SDS011;7285;50.894;5.462;2024-03-06T04:41:37;1.80;;;1.80;;
14400;SDS011;7285;50.894;5.462;2024-03-06T04:44:04;2.00;;;2.00;;
14400;SDS011;7285;50.894;5.462;2024-03-06T04:46:31;1.40;;;1.40;;
14400;SDS011;7285;50.894;5.462;2024-03-06T04:48:58;1.47;;;1.47;;
14400;SDS011;7285;50.894;5.462;2024-03-06T04:51:25;1.87;;;1.80;;
14400;SDS011;7285;50.894;5.462;2024-03-06T04:53:51;1.40;;;1.40;;
14400;SDS011;7285;50.894;5.462;2024-03-06T04:56:20;1.83;;;1.83;;
14400;SDS011;7285;50.894;5.462;2024-03-06T04:58:47;1.70;;;1.70;;
14400;SDS011;7285;50.894;5.462;2024-03-06T05:01:14;1.80;;;1.80;;
14400;SDS011;7285;50.894;5.462;2024-03-06T05:03:41;2.27;;;2.17;;
14400;SDS011;7285;50.894;5.462;2024-03-06T05:06:08;1.30;;;1.30;;
14400;SDS011;7285;50.894;5.462;2024-03-06T05:08:35;2.57;;;2.57;;
14400;SDS011;7285;50.894;5.462;2024-03-06T05:11:03;1.77;;;1.77;;
14400;SDS011;7285;50.894;5.462;2024-03-06T05:13:31;2.17;;;2.17;;
14400;SDS011;7285;50.894;5.462;2024-03-06T05:15:58;1.40;;;1.40;;
14400;SDS011;7285;50.894;5.462;2024-03-06T05:18:25;1.97;;;1.97;;
14400;SDS011;7285;50.894;5.462;2024-03-06T05:20:52;2.30;;;2.20;;
14400;SDS011;7285;50.894;5.462;2024-03-06T05:23:19;1.80;;;1.80;;
14400;SDS011;7285;50.894;5.462;2024-03-06T05:25:46;1.63;;;1.63;;
14400;SDS011;7285;50.894;5.462;2024-03-06T05:28:13;2.10;;;2.00;;
14400;SDS011;7285;50.894;5.462;2024-03-06T05:30:42;1.80;;;1.70;;
14400;SDS011;7285;50.894;5.462;2024-03-06T05:33:09;1.93;;;1.93;;
14400;SDS011;7285;50.894;5.462;2024-03-06T05:35:36;1.53;;;1.53;;
14400;SDS011;7285;50.894;5.462;2024-03-06T05:38:03;1.40;;;1.40;;
14400;SDS011;7285;50.894;5.462;2024-03-06T05:40:32;1.53;;;1.53;;
14400;SDS011;7285;50.894;5.462;2024-03-06T05:43:02;1.70;;;1.70;;
14400;SDS011;7285;50.894;5.462;2024-03-06T05:45:29;1.60;;;1.60;;
14400;SDS011;7285;50.894;5.462;2024-03-06T05:47:58;1.83;;;1.83;;
14400;SDS011;7285;50.894;5.462;2024-03-06T05:50:24;1.93;;;1.83;;
14400;SDS011;7285;50.894;5.462;2024-03-06T05:52:51;1.77;;;1.77;;
14400;SDS011;7285;50.894;5.462;2024-03-06T05:55:18;1.60;;;1.60;;
14400;SDS011;7285;50.894;5.462;2024-03-06T05:57:45;1.47;;;1.47;;
14400;SDS011;7285;50.894;5.462;2024-03-06T06:00:12;1.37;;;1.37;;
14400;SDS011;7285;50.894;5.462;2024-03-06T06:02:43;1.50;;;1.50;;
14400;SDS011;7285;50.894;5.462;2024-03-06T06:05:12;1.40;;;1.40;;
14400;SDS011;7285;50.894;5.462;2024-03-06T06:07:39;1.40;;;1.40;;
14400;SDS011;7285;50.894;5.462;2024-03-06T06:10:07;1.70;;;1.70;;
14400;SDS011;7285;50.894;5.462;2024-03-06T06:12:35;1.60;;;1.60;;
14400;SDS011;7285;50.894;5.462;2024-03-06T06:15:02;1.80;;;1.80;;
14400;SDS011;7285;50.894;5.462;2024-03-06T06:17:29;1.73;;;1.73;;
14400;SDS011;7285;50.894;5.462;2024-03-06T06:19:56;7.00;;;1.90;;
14400;SDS011;7285;50.894;5.462;2024-03-06T06:22:26;1.60;;;1.60;;
14400;SDS011;7285;50.894;5.462;2024-03-06T06:24:53;1.50;;;1.50;;
14400;SDS011;7285;50.894;5.462;2024-03-06T06:27:20;1.80;;;1.80;;
14400;SDS011;7285;50.894;5.462;2024-03-06T06:29:47;1.30;;;1.30;;
14400;SDS011;7285;50.894;5.462;2024-03-06T06:32:14;1.90;;;1.90;;
14400;SDS011;7285;50.894;5.462;2024-03-06T06:34:41;1.60;;;1.60;;
14400;SDS011;7285;50.894;5.462;2024-03-06T06:37:10;1.83;;;1.83;;
14400;SDS011;7285;50.894;5.462;2024-03-06T06:39:38;1.67;;;1.67;;
14400;SDS011;7285;50.894;5.462;2024-03-06T06:42:05;1.70;;;1.70;;
14400;SDS011;7285;50.894;5.462;2024-03-06T06:44:32;1.97;;;1.97;;
14400;SDS011;7285;50.894;5.462;2024-03-06T06:46:59;1.60;;;1.60;;
14400;SDS011;7285;50.894;5.462;2024-03-06T06:49:26;2.13;;;2.13;;
14400;SDS011;7285;50.894;5.462;2024-03-06T06:51:53;1.30;;;1.30;;
14400;SDS011;7285;50.894;5.462;2024-03-06T06:54:20;2.17;;;2.17;;
14400;SDS011;7285;50.894;5.462;2024-03-06T06:56:48;2.40;;;2.30;;
14400;SDS011;7285;50.894;5.462;2024-03-06T06:59:15;2.23;;;2.23;;
14400;SDS011;7285;50.894;5.462;2024-03-06T07:01:42;1.40;;;1.40;;
14400;SDS011;7285;50.894;5.462;2024-03-06T07:04:09;1.83;;;1.80;;
14400;SDS011;7285;50.894;5.462;2024-03-06T07:06:36;2.47;;;2.37;;
14400;SDS011;7285;50.894;5.462;2024-03-06T07:09:03;1.47;;;1.47;;
14400;SDS011;7285;50.894;5.462;2024-03-06T07:11:30;1.73;;;1.73;;
14400;SDS011;7285;50.894;5.462;2024-03-06T07:13:58;1.53;;;1.53;;
14400;SDS011;7285;50.894;5.462;2024-03-06T07:16:25;2.60;;;2.50;;
14400;SDS011;7285;50.894;5.462;2024-03-06T07:18:52;2.63;;;2.53;;
14400;SDS011;7285;50.894;5.462;2024-03-06T07:21:19;2.23;;;2.13;;
14400;SDS011;7285;50.894;5.462;2024-03-06T07:23:46;2.17;;;2.07;;
14400;SDS011;7285;50.894;5.462;2024-03-06T07:26:13;2.30;;;2.20;;
14400;SDS011;7285;50.894;5.462;2024-03-06T07:28:40;2.03;;;1.93;;
14400;SDS011;7285;50.894;5.462;2024-03-06T07:31:08;1.87;;;1.87;;
14400;SDS011;7285;50.894;5.462;2024-03-06T07:33:35;1.70;;;1.70;;
14400;SDS011;7285;50.894;5.462;2024-03-06T07:36:03;2.17;;;2.17;;
14400;SDS011;7285;50.894;5.462;2024-03-06T07:38:31;1.50;;;1.50;;
14400;SDS011;7285;50.894;5.462;2024-03-06T07:40:58;2.00;;;2.00;;
14400;SDS011;7285;50.894;5.462;2024-03-06T07:43:24;2.03;;;2.03;;
14400;SDS011;7285;50.894;5.462;2024-03-06T07:45:51;1.67;;;1.57;;
14400;SDS011;7285;50.894;5.462;2024-03-06T07:48:20;1.20;;;1.20;;
14400;SDS011;7285;50.894;5.462;2024-03-06T07:50:47;1.60;;;1.60;;
14400;SDS011;7285;50.894;5.462;2024-03-06T07:53:13;1.50;;;1.50;;
14400;SDS011;7285;50.894;5.462;2024-03-06T07:55:41;1.40;;;1.40;;
14400;SDS011;7285;50.894;5.462;2024-03-06T07:58:08;2.30;;;2.10;;
14400;SDS011;7285;50.894;5.462;2024-03-06T08:00:35;2.30;;;2.20;;
14400;SDS011;7285;50.894;5.462;2024-03-06T08:03:02;1.90;;;1.87;;
14400;SDS011;7285;50.894;5.462;2024-03-06T08:05:30;1.40;;;1.40;;
14400;SDS011;7285;50.894;5.462;2024-03-06T08:07:58;1.37;;;1.37;;
14400;SDS011;7285;50.894;5.462;2024-03-06T08:10:25;1.40;;;1.40;;
14400;SDS011;7285;50.894;5.462;2024-03-06T08:12:52;2.23;;;2.13;;
14400;SDS011;7285;50.894;5.462;2024-03-06T08:15:19;1.80;;;1.70;;
14400;SDS011;7285;50.894;5.462;2024-03-06T08:17:47;1.57;;;1.57;;
14400;SDS011;7285;50.894;5.462;2024-03-06T08:20:17;1.43;;;1.43;;
14400;SDS011;7285;50.894;5.462;2024-03-06T08:22:46;1.63;;;1.63;;
14400;SDS011;7285;50.894;5.462;2024-03-06T08:25:12;1.73;;;1.73;;
14400;SDS011;7285;50.894;5.462;2024-03-06T08:27:41;1.37;;;1.37;;
14400;SDS011;7285;50.894;5.462;2024-03-06T08:30:08;2.33;;;2.23;;
14400;SDS011;7285;50.894;5.462;2024-03-06T08:32:35;1.30;;;1.30;;
14400;SDS011;7285;50.894;5.462;2024-03-06T08:35:03;1.30;;;1.30;;
14400;SDS011;7285;50.894;5.462;2024-03-06T08:37:31;2.10;;;2.10;;
14400;SDS011;7285;50.894;5.462;2024-03-06T08:40:00;1.27;;;1.20;;
14400;SDS011;7285;50.894;5.462;2024-03-06T08:42:27;1.20;;;1.20;;
14400;SDS011;7285;50.894;5.462;2024-03-06T08:44:54;1.10;;;1.10;;
14400;SDS011;7285;50.894;5.462;2024-03-06T08:47:21;1.40;;;1.40;;
14400;SDS011;7285;50.894;5.462;2024-03-06T08:49:48;1.90;;;1.80;;
14400;SDS011;7285;50.894;5.462;2024-03-06T08:52:16;1.90;;;1.90;;
14400;SDS011;7285;50.894;5.462;2024-03-06T08:54:43;1.37;;;1.37;;
14400;SDS011;7285;50.894;5.462;2024-03-06T08:57:11;1.27;;;1.27;;
14400;SDS011;7285;50.894;5.462;2024-03-06T08:59:38;1.70;;;1.70;;
14400;SDS011;7285;50.894;5.462;2024-03-06T09:02:12;1.67;;;1.63;;
14400;SDS011;7285;50.894;5.462;2024-03-06T09:04:40;1.30;;;1.30;;
14400;SDS011;7285;50.894;5.462;2024-03-06T09:07:07;2.07;;;1.97;;
14400;SDS011;7285;50.894;5.462;2024-03-06T09:09:35;1.33;;;1.33;;
14400;SDS011;7285;50.894;5.462;2024-03-06T09:12:03;1.57;;;1.57;;
14400;SDS011;7285;50.894;5.462;2024-03-06T09:14:32;1.87;;;1.83;;
14400;SDS011;7285;50.894;5.462;2024-03-06T09:17:00;1.20;;;1.20;;
14400;SDS011;7285;50.894;5.462;2024-03-06T09:19:28;2.03;;;1.93;;
14400;SDS011;7285;50.894;5.462;2024-03-06T09:21:55;1.30;;;1.30;;
14400;SDS011;7285;50.894;5.462;2024-03-06T09:24:23;2.33;;;1.70;;
14400;SDS011;7285;50.894;5.462;2024-03-06T09:26:51;0.77;;;0.77;;
14400;SDS011;7285;50.894;5.462;2024-03-06T09:29:18;1.50;;;1.50;;
14400;SDS011;7285;50.894;5.462;2024-03-06T09:31:46;1.63;;;1.53;;
14400;SDS011;7285;50.894;5.462;2024-03-06T09:34:14;0.80;;;0.80;;
14400;SDS011;7285;50.894;5.462;2024-03-06T09:36:41;1.00;;;1.00;;
14400;SDS011;7285;50.894;5.462;2024-03-06T09:39:11;1.70;;;1.60;;
14400;SDS011;7285;50.894;5.462;2024-03-06T09:41:40;1.17;;;1.00;;
14400;SDS011;7285;50.894;5.462;2024-03-06T09:44:07;1.07;;;1.07;;
14400;SDS011;7285;50.894;5.462;2024-03-06T09:46:34;1.73;;;1.63;;
14400;SDS011;7285;50.894;5.462;2024-03-06T09:49:03;1.50;;;1.40;;
14400;SDS011;7285;50.894;5.462;2024-03-06T09:51:30;1.33;;;1.23;;
14400;SDS011;7285;50.894;5.462;2024-03-06T09:53:58;0.80;;;0.80;;
14400;SDS011;7285;50.894;5.462;2024-03-06T09:56:25;5.10;;;1.20;;
14400;SDS011;7285;50.894;5.462;2024-03-06T09:58:51;1.13;;;1.13;;
14400;SDS011;7285;50.894;5.462;2024-03-06T10:01:19;1.33;;;1.33;;
14400;SDS011;7285;50.894;5.462;2024-03-06T10:03:47;1.40;;;1.40;;
14400;SDS011;7285;50.894;5.462;2024-03-06T10:06:15;0.80;;;0.80;;
14400;SDS011;7285;50.894;5.462;2024-03-06T10:08:42;1.10;;;1.10;;
14400;SDS011;7285;50.894;5.462;2024-03-06T10:11:11;1.33;;;1.23;;
14400;SDS011;7285;50.894;5.462;2024-03-06T10:13:38;0.80;;;0.80;;
14400;SDS011;7285;50.894;5.462;2024-03-06T10:16:05;0.70;;;0.70;;
14400;SDS011;7285;50.894;5.462;2024-03-06T10:18:35;1.17;;;0.90;;
14400;SDS011;7285;50.894;5.462;2024-03-06T10:21:04;0.93;;;0.93;;
14400;SDS011;7285;50.894;5.462;2024-03-06T10:23:32;0.97;;;0.97;;
14400;SDS011;7285;50.894;5.462;2024-03-06T10:26:00;1.30;;;1.20;;
14400;SDS011;7285;50.894;5.462;2024-03-06T10:28:28;1.33;;;1.23;;
14400;SDS011;7285;50.894;5.462;2024-03-06T10:31:03;0.73;;;0.73;;
14400;SDS011;7285;50.894;5.462;2024-03-06T10:33:32;1.50;;;1.40;;
14400;SDS011;7285;50.894;5.462;2024-03-06T10:36:00;0.90;;;0.90;;
14400;SDS011;7285;50.894;5.462;2024-03-06T10:38:27;0.60;;;0.60;;
14400;SDS011;7285;50.894;5.462;2024-03-06T10:41:02;0.60;;;0.60;;
14400;SDS011;7285;50.894;5.462;2024-03-06T10:43:32;3.13;;;1.03;;
14400;SDS011;7285;50.894;5.462;2024-03-06T10:46:02;1.00;;;1.00;;
14400;SDS011;7285;50.894;5.462;2024-03-06T10:48:34;0.60;;;0.60;;
14400;SDS011;7285;50.894;5.462;2024-03-06T10:51:02;0.70;;;0.70;;
14400;SDS011;7285;50.894;5.462;2024-03-06T10:53:31;0.70;;;0.70;;
14400;SDS011;7285;50.894;5.462;2024-03-06T10:56:01;0.70;;;0.70;;
14400;SDS011;7285;50.894;5.462;2024-03-06T10:58:31;4.23;;;0.97;;
14400;SDS011;7285;50.894;5.462;2024-03-06T11:01:00;0.60;;;0.60;;
14400;SDS011;7285;50.894;5.462;2024-03-06T11:03:28;0.93;;;0.93;;
14400;SDS011;7285;50.894;5.462;2024-03-06T11:05:56;2.47;;;0.93;;
14400;SDS011;7285;50.894;5.462;2024-03-06T11:08:23;0.63;;;0.63;;
14400;SDS011;7285;50.894;5.462;2024-03-06T11:10:53;10.83;;;1.00;;
14400;SDS011;7285;50.894;5.462;2024-03-06T11:13:40;3.50;;;0.70;;
14400;SDS011;7285;50.894;5.462;2024-03-06T11:16:07;1.00;;;1.00;;
14400;SDS011;7285;50.894;5.462;2024-03-06T11:18:41;0.90;;;0.90;;
14400;SDS011;7285;50.894;5.462;2024-03-06T11:24:17;0.77;;;0.77;;
14400;SDS011;7285;50.894;5.462;2024-03-06T11:26:50;1.00;;;1.00;;
14400;SDS011;7285;50.894;5.462;2024-03-06T11:29:32;1.10;;;1.10;;
14400;SDS011;7285;50.894;5.462;2024-03-06T11:32:29;1.43;;;1.00;;
14400;SDS011;7285;50.894;5.462;2024-03-06T11:34:56;0.63;;;0.63;;
14400;SDS011;7285;50.894;5.462;2024-03-06T11:37:25;1.13;;;1.03;;
14400;SDS011;7285;50.894;5.462;2024-03-06T11:40:00;0.97;;;0.97;;
14400;SDS011;7285;50.894;5.462;2024-03-06T11:42:38;1.10;;;1.10;;
14400;SDS011;7285;50.894;5.462;2024-03-06T11:45:12;1.17;;;1.07;;
14400;SDS011;7285;50.894;5.462;2024-03-06T11:47:57;1.13;;;1.10;;
14400;SDS011;7285;50.894;5.462;2024-03-06T11:50:26;3.47;;;1.57;;
14400;SDS011;7285;50.894;5.462;2024-03-06T11:52:55;1.00;;;1.00;;
14400;SDS011;7285;50.894;5.462;2024-03-06T11:55:22;1.10;;;1.00;;
14400;SDS011;7285;50.894;5.462;2024-03-06T11:57:51;0.83;;;0.83;;
14400;SDS011;7285;50.894;5.462;2024-03-06T12:00:21;0.80;;;0.80;;
14400;SDS011;7285;50.894;5.462;2024-03-06T12:02:48;0.70;;;0.70;;
14400;SDS011;7285;50.894;5.462;2024-03-06T12:05:16;0.67;;;0.67;;
14400;SDS011;7285;50.894;5.462;2024-03-06T12:07:46;0.60;;;0.60;;
14400;SDS011;7285;50.894;5.462;2024-03-06T12:10:13;0.60;;;0.60;;
14400;SDS011;7285;50.894;5.462;2024-03-06T12:12:42;0.57;;;0.57;;
14400;SDS011;7285;50.894;5.462;2024-03-06T12:15:11;1.40;;;1.33;;
14400;SDS011;7285;50.894;5.462;2024-03-06T12:17:43;1.30;;;1.17;;
14400;SDS011;7285;50.894;5.462;2024-03-06T12:20:12;0.60;;;0.60;;
14400;SDS011;7285;50.894;5.462;2024-03-06T12:22:44;3.53;;;1.13;;
14400;SDS011;7285;50.894;5.462;2024-03-06T12:25:17;0.90;;;0.90;;
14400;SDS011;7285;50.894;5.462;2024-03-06T12:27:45;0.90;;;0.90;;
14400;SDS011;7285;50.894;5.462;2024-03-06T12:30:15;0.60;;;0.60;;
14400;SDS011;7285;50.894;5.462;2024-03-06T12:32:43;0.43;;;0.43;;
14400;SDS011;7285;50.894;5.462;2024-03-06T12:35:10;0.50;;;0.50;;
14400;SDS011;7285;50.894;5.462;2024-03-06T12:37:37;0.40;;;0.40;;
14400;SDS011;7285;50.894;5.462;2024-03-06T12:40:04;1.23;;;0.50;;
14400;SDS011;7285;50.894;5.462;2024-03-06T12:42:35;0.40;;;0.40;;
14400;SDS011;7285;50.894;5.462;2024-03-06T12:45:03;0.43;;;0.43;;
14400;SDS011;7285;50.894;5.462;2024-03-06T12:47:33;0.70;;;0.70;;
14400;SDS011;7285;50.894;5.462;2024-03-06T12:50:00;0.63;;;0.50;;
14400;SDS011;7285;50.894;5.462;2024-03-06T12:52:27;0.40;;;0.40;;
14400;SDS011;7285;50.894;5.462;2024-03-06T12:54:54;0.37;;;0.37;;
14400;SDS011;7285;50.894;5.462;2024-03-06T12:57:20;0.40;;;0.40;;
14400;SDS011;7285;50.894;5.462;2024-03-06T12:59:47;0.50;;;0.50;;
14400;SDS011;7285;50.894;5.462;2024-03-06T13:02:15;1.97;;;0.63;;
14400;SDS011;7285;50.894;5.462;2024-03-06T13:04:43;0.60;;;0.60;;
14400;SDS011;7285;50.894;5.462;2024-03-06T13:07:10;0.40;;;0.40;;
14400;SDS011;7285;50.894;5.462;2024-03-06T13:09:37;0.50;;;0.50;;
14400;SDS011;7285;50.894;5.462;2024-03-06T13:12:04;0.40;;;0.40;;
14400;SDS011;7285;50.894;5.462;2024-03-06T13:14:32;1.80;;;0.90;;
14400;SDS011;7285;50.894;5.462;2024-03-06T13:16:59;0.40;;;0.40;;
14400;SDS011;7285;50.894;5.462;2024-03-06T13:19:27;2.88;;;2.45;;
14400;SDS011;7285;50.894;5.462;2024-03-06T13:21:56;1.30;;;1.23;;
14400;SDS011;7285;50.894;5.462;2024-03-06T13:24:22;0.95;;;0.95;;
14400;SDS011;7285;50.894;5.462;2024-03-06T13:26:49;0.43;;;0.43;;
14400;SDS011;7285;50.894;5.462;2024-03-06T13:29:16;0.70;;;0.70;;
14400;SDS011;7285;50.894;5.462;2024-03-06T13:31:43;0.32;;;0.32;;
14400;SDS011;7285;50.894;5.462;2024-03-06T13:34:10;0.40;;;0.40;;
14400;SDS011;7285;50.894;5.462;2024-03-06T13:36:37;0.40;;;0.30;;
14400;SDS011;7285;50.894;5.462;2024-03-06T13:39:05;0.20;;;0.20;;
14400;SDS011;7285;50.894;5.462;2024-03-06T13:41:32;0.30;;;0.30;;
14400;SDS011;7285;50.894;5.462;2024-03-06T13:43:59;0.30;;;0.30;;
14400;SDS011;7285;50.894;5.462;2024-03-06T13:46:26;0.40;;;0.40;;
14400;SDS011;7285;50.894;5.462;2024-03-06T13:48:53;0.40;;;0.40;;
14400;SDS011;7285;50.894;5.462;2024-03-06T13:51:20;0.70;;;0.70;;
14400;SDS011;7285;50.894;5.462;2024-03-06T13:53:46;2.28;;;0.50;;
14400;SDS011;7285;50.894;5.462;2024-03-06T13:56:15;0.28;;;0.28;;
14400;SDS011;7285;50.894;5.462;2024-03-06T13:58:43;0.32;;;0.30;;
14400;SDS011;7285;50.894;5.462;2024-03-06T14:01:10;0.20;;;0.20;;
14400;SDS011;7285;50.894;5.462;2024-03-06T14:03:38;0.80;;;0.30;;
14400;SDS011;7285;50.894;5.462;2024-03-06T14:06:05;0.30;;;0.30;;
14400;SDS011;7285;50.894;5.462;2024-03-06T14:08:34;0.10;;;0.10;;
14400;SDS011;7285;50.894;5.462;2024-03-06T14:11:03;0.20;;;0.20;;
14400;SDS011;7285;50.894;5.462;2024-03-06T14:13:33;0.50;;;0.50;;
14400;SDS011;7285;50.894;5.462;2024-03-06T14:16:00;0.35;;;0.30;;
14400;SDS011;7285;50.894;5.462;2024-03-06T14:18:28;10.05;;;1.20;;
14400;SDS011;7285;50.894;5.462;2024-03-06T14:20:55;0.40;;;0.40;;
14400;SDS011;7285;50.894;5.462;2024-03-06T14:23:22;0.30;;;0.30;;
14400;SDS011;7285;50.894;5.462;2024-03-06T14:25:49;0.50;;;0.50;;
14400;SDS011;7285;50.894;5.462;2024-03-06T14:28:16;0.40;;;0.40;;
14400;SDS011;7285;50.894;5.462;2024-03-06T14:30:44;0.30;;;0.30;;
14400;SDS011;7285;50.894;5.462;2024-03-06T14:33:12;0.40;;;0.40;;
14400;SDS011;7285;50.894;5.462;2024-03-06T14:35:39;0.60;;;0.60;;
14400;SDS011;7285;50.894;5.462;2024-03-06T14:38:06;0.60;;;0.60;;
14400;SDS011;7285;50.894;5.462;2024-03-06T14:40:33;0.40;;;0.40;;
14400;SDS011;7285;50.894;5.462;2024-03-06T14:43:01;0.40;;;0.40;;
14400;SDS011;7285;50.894;5.462;2024-03-06T14:45:34;0.40;;;0.40;;
14400;SDS011;7285;50.894;5.462;2024-03-06T14:48:08;0.73;;;0.73;;
14400;SDS011;7285;50.894;5.462;2024-03-06T14:50:34;0.50;;;0.50;;
14400;SDS011;7285;50.894;5.462;2024-03-06T14:53:01;0.43;;;0.43;;
14400;SDS011;7285;50.894;5.462;2024-03-06T14:55:30;0.47;;;0.47;;
14400;SDS011;7285;50.894;5.462;2024-03-06T14:57:57;0.70;;;0.70;;
14400;SDS011;7285;50.894;5.462;2024-03-06T15:00:24;0.50;;;0.50;;
14400;SDS011;7285;50.894;5.462;2024-03-06T15:02:51;0.60;;;0.60;;
14400;SDS011;7285;50.894;5.462;2024-03-06T15:05:19;0.43;;;0.43;;
14400;SDS011;7285;50.894;5.462;2024-03-06T15:07:46;0.70;;;0.70;;